Terminal Aerodrome Forecast
Issued by NWS Anchorage, AK

Home | Current Version | Previous Version | Text Only | Print | Product List | Glossary On
Versions: 1 2 3 4 5 6 7 8 9 10 11 12 13 14 15 16 17 18 19 20 21 22 23 24 25 26 27 28 29 30 31 32 33 34 35 36 37 38 39 40 41 42 43 44 45 46 47 48 49 50
000
FTAK31 PANC 252007 AAB
TAFANC
TAF AMD
PANC 252007Z 2520/2624 35008KT P6SM -RA FEW005 BKN030 OVC060
      TEMPO 2520/2522 SCT030 OVC060
     FM252200 33005KT P6SM -RA SCT020 OVC035
     FM260600 VRB04KT P6SM -SHRA SCT030 BKN060 OVC090
     FM261800 32005KT P6SM VCSH SCT050 BKN080=

USA.gov is the U.S. government's official web portal to all federal, state and local government web resources and services.